createdAt,value
2023-01-28T00:04:51.321Z,16.25
2023-01-28T00:09:52.780Z,17.23
2023-01-28T00:14:54.248Z,17.35
2023-01-28T00:19:55.721Z,17.23
2023-01-28T00:24:57.183Z,17.40
2023-01-28T00:29:58.642Z,18.67
2023-01-28T00:35:00.137Z,18.23
2023-01-28T00:40:01.567Z,15.40
2023-01-28T00:45:03.011Z,15.60
2023-01-28T00:50:04.479Z,17.20
2023-01-28T00:55:05.907Z,15.65
2023-01-28T01:00:07.385Z,16.20
2023-01-28T01:05:08.827Z,15.88
2023-01-28T01:10:10.246Z,14.65
2023-01-28T01:15:11.681Z,15.20
2023-01-28T01:20:13.306Z,15.68
2023-01-28T01:25:15.195Z,16.08
2023-01-28T01:30:16.933Z,14.52
2023-01-28T01:35:18.665Z,15.40
2023-01-28T01:40:20.239Z,17.10
2023-01-28T01:45:21.704Z,16.70
2023-01-28T01:50:23.168Z,16.40
2023-01-28T01:55:24.622Z,17.02
2023-01-28T02:00:26.095Z,17.45
2023-01-28T02:05:27.566Z,16.55
2023-01-28T02:10:29.002Z,16.98
2023-01-28T02:15:30.475Z,18.80
2023-01-28T02:20:31.941Z,18.50
2023-01-28T02:25:33.405Z,17.67
2023-01-28T02:30:34.943Z,17.83
2023-01-28T02:35:36.436Z,16.08
2023-01-28T02:40:37.895Z,18.40
2023-01-28T02:45:39.368Z,18.02
2023-01-28T02:50:40.799Z,18.35
2023-01-28T02:55:42.277Z,17.77
2023-01-28T03:00:43.710Z,16.05
2023-01-28T03:05:45.140Z,17.45
2023-01-28T03:10:46.610Z,17.38
2023-01-28T03:15:48.125Z,17.50
2023-01-28T03:20:49.624Z,17.75
2023-01-28T03:25:51.071Z,16.45
2023-01-28T03:30:52.591Z,18.77
2023-01-28T03:35:54.099Z,16.63
2023-01-28T03:40:55.574Z,17.33
2023-01-28T03:45:57.009Z,17.67
2023-01-28T03:50:58.432Z,17.63
2023-01-28T03:55:59.892Z,18.02
2023-01-28T04:01:01.376Z,18.52
2023-01-28T04:06:02.794Z,18.33
2023-01-28T04:11:04.214Z,17.63
2023-01-28T04:16:05.741Z,18.58
2023-01-28T04:21:07.217Z,17.05
2023-01-28T04:26:08.677Z,18.70
2023-01-28T04:31:10.171Z,16.95
2023-01-28T04:36:11.646Z,16.10
2023-01-28T04:41:13.111Z,16.33
2023-01-28T04:46:14.563Z,17.90
2023-01-28T04:51:15.994Z,17.35
2023-01-28T04:56:17.493Z,17.35
2023-01-28T05:01:18.927Z,17.67
2023-01-28T05:06:20.350Z,18.35
2023-01-28T05:11:21.774Z,17.63
2023-01-28T05:16:23.213Z,17.25
2023-01-28T05:21:24.668Z,16.65
2023-01-28T05:26:26.113Z,16.50
2023-01-28T05:31:27.557Z,17.90
2023-01-28T05:36:29.690Z,16.98
2023-01-28T05:41:31.263Z,16.08
2023-01-28T05:46:32.681Z,15.57
2023-01-28T05:51:34.098Z,16.88
2023-01-28T05:56:35.524Z,16.70
2023-01-28T06:01:36.976Z,16.25
2023-01-28T06:06:38.445Z,16.33
2023-01-28T06:11:39.871Z,15.63
2023-01-28T06:16:41.477Z,15.88
2023-01-28T06:21:42.915Z,16.20
2023-01-28T06:26:44.338Z,14.85
2023-01-28T06:31:45.847Z,15.40
2023-01-28T06:36:47.336Z,16.00
2023-01-28T06:41:48.796Z,14.40
2023-01-28T06:46:50.276Z,14.90
2023-01-28T06:51:51.719Z,14.15
2023-01-28T06:56:53.182Z,15.55
2023-01-28T07:01:54.695Z,14.57
2023-01-28T07:06:56.152Z,15.23
2023-01-28T07:11:57.627Z,14.00
2023-01-28T07:16:59.149Z,15.52
2023-01-28T07:22:00.661Z,13.80
2023-01-28T07:27:02.087Z,14.85
2023-01-28T07:32:03.594Z,14.82
2023-01-28T07:37:05.166Z,13.38
2023-01-28T07:42:06.612Z,13.25
2023-01-28T07:47:08.087Z,13.77
2023-01-28T07:52:09.539Z,14.93
2023-01-28T07:57:10.990Z,15.32
2023-01-28T08:02:12.451Z,13.20
2023-01-28T08:07:14.879Z,13.45
2023-01-28T08:12:16.311Z,18.30
2023-01-28T08:17:17.773Z,15.88
2023-01-28T08:22:19.208Z,15.48
2023-01-28T08:27:20.665Z,15.27
2023-01-28T08:32:22.095Z,14.13
2023-01-28T08:37:23.557Z,13.45
2023-01-28T08:42:25.018Z,14.43
2023-01-28T08:47:26.450Z,15.50
2023-01-28T08:52:27.879Z,15.32
2023-01-28T08:57:29.340Z,15.10
2023-01-28T09:02:32.332Z,14.80
2023-01-28T09:07:33.903Z,13.68
2023-01-28T09:12:35.380Z,14.30
2023-01-28T09:17:36.815Z,14.68
2023-01-28T09:22:38.236Z,17.52
2023-01-28T09:27:39.664Z,16.77
2023-01-28T09:32:41.118Z,15.15
2023-01-28T09:37:42.563Z,16.92
2023-01-28T09:42:44.022Z,18.70
2023-01-28T09:47:45.490Z,18.35
2023-01-28T09:52:46.924Z,17.50
2023-01-28T09:57:48.359Z,19.30
2023-01-28T10:02:49.837Z,19.30
2023-01-28T10:07:51.321Z,19.85
2023-01-28T10:12:52.751Z,16.77
2023-01-28T10:18:07.250Z,17.48
2023-01-28T10:23:15.583Z,16.73
2023-01-28T10:28:17.036Z,16.23
2023-01-28T10:33:18.494Z,13.57
2023-01-28T10:38:20.001Z,14.98
2023-01-28T10:43:21.462Z,14.65
2023-01-28T10:48:22.931Z,13.60
2023-01-28T10:53:26.927Z,14.75
2023-01-28T10:58:28.547Z,16.70
2023-01-28T11:03:29.993Z,15.00
2023-01-28T11:08:31.459Z,15.32
2023-01-28T11:13:32.946Z,14.02
2023-01-28T11:18:34.387Z,12.52
2023-01-28T11:23:35.824Z,11.95
2023-01-28T11:28:37.271Z,11.20
2023-01-28T11:33:38.724Z,10.75
2023-01-28T11:38:40.160Z,9.20
2023-01-28T11:43:41.625Z,9.45
2023-01-28T11:48:43.487Z,8.18
2023-01-28T11:53:44.908Z,7.68
2023-01-28T11:58:46.530Z,8.93
2023-01-28T12:03:47.953Z,7.30
2023-01-28T12:08:49.426Z,8.48
2023-01-28T12:13:50.874Z,7.32
2023-01-28T12:18:52.340Z,7.90
2023-01-28T12:23:53.821Z,7.18
2023-01-28T12:28:55.310Z,7.40
2023-01-28T12:33:56.821Z,6.88
2023-01-28T12:38:58.289Z,7.72
2023-01-28T12:43:59.775Z,6.82
2023-01-28T12:49:01.213Z,7.68
2023-01-28T12:54:02.677Z,6.93
2023-01-28T12:59:04.151Z,5.82
2023-01-28T13:04:05.621Z,7.30
2023-01-28T13:09:07.073Z,7.78
2023-01-28T13:14:08.530Z,8.88
2023-01-28T13:19:09.961Z,8.65
2023-01-28T13:24:11.414Z,7.43
2023-01-28T13:29:12.925Z,6.57
2023-01-28T13:34:14.360Z,9.30
2023-01-28T13:39:15.806Z,9.05
2023-01-28T13:44:17.241Z,6.35
2023-01-28T13:49:18.673Z,6.45
2023-01-28T13:54:20.115Z,6.68
2023-01-28T13:59:21.547Z,5.97
2023-01-28T14:04:23.072Z,5.38
2023-01-28T14:09:24.560Z,5.10
2023-01-28T14:14:26.171Z,8.32
2023-01-28T14:19:27.656Z,6.70
2023-01-28T14:24:29.186Z,6.78
2023-01-28T14:29:30.862Z,5.82
2023-01-28T14:34:32.339Z,5.85
2023-01-28T14:39:33.867Z,6.07
2023-01-28T14:44:35.458Z,6.28
2023-01-28T14:49:36.946Z,5.47
2023-01-28T14:54:38.401Z,5.57
2023-01-28T14:59:40.069Z,6.00
2023-01-28T15:04:41.528Z,5.13
2023-01-28T15:09:43.005Z,5.53
2023-01-28T15:14:44.503Z,6.28
2023-01-28T15:19:45.963Z,6.68
2023-01-28T15:24:47.432Z,5.70
2023-01-28T15:29:48.918Z,6.35
2023-01-28T15:34:50.396Z,6.75
2023-01-28T15:39:52.024Z,6.40
2023-01-28T15:44:53.535Z,7.47
2023-01-28T15:49:55.037Z,6.63
2023-01-28T15:54:56.521Z,6.95
2023-01-28T15:59:59.065Z,6.53
2023-01-28T16:05:00.532Z,4.63
2023-01-28T16:10:02.065Z,8.23
2023-01-28T16:15:03.624Z,7.80
2023-01-28T16:20:05.101Z,7.68
2023-01-28T16:25:06.603Z,7.78
2023-01-28T16:30:08.048Z,9.05
2023-01-28T16:35:09.524Z,7.82
2023-01-28T16:40:10.951Z,6.82
2023-01-28T16:45:12.543Z,7.93
2023-01-28T16:50:14.128Z,9.15
2023-01-28T16:55:15.992Z,7.55
2023-01-28T17:00:17.622Z,8.45
2023-01-28T17:05:19.313Z,8.05
2023-01-28T17:10:20.888Z,6.88
2023-01-28T17:15:22.354Z,8.07
2023-01-28T17:20:23.843Z,10.88
2023-01-28T17:25:25.404Z,10.48
2023-01-28T17:30:26.865Z,10.20
2023-01-28T17:35:28.346Z,9.05
2023-01-28T17:40:29.950Z,9.02
2023-01-28T17:45:31.707Z,9.48
2023-01-28T17:50:33.311Z,9.00
2023-01-28T17:55:34.813Z,11.60
2023-01-28T18:00:36.266Z,8.13
2023-01-28T18:05:37.858Z,7.45
2023-01-28T18:10:39.350Z,7.78
2023-01-28T18:15:40.868Z,7.93
2023-01-28T18:20:42.316Z,10.13
2023-01-28T18:25:43.742Z,8.95
2023-01-28T18:30:45.257Z,10.30
2023-01-28T18:35:47.308Z,8.18
2023-01-28T18:40:48.930Z,9.50
2023-01-28T18:45:50.538Z,7.80
2023-01-28T18:50:52.405Z,8.32
2023-01-28T18:55:53.911Z,7.07
2023-01-28T19:00:55.389Z,7.38
2023-01-28T19:05:57.004Z,8.32
2023-01-28T19:10:58.453Z,8.73
2023-01-28T19:16:00.127Z,5.78
2023-01-28T19:21:01.772Z,8.07
2023-01-28T19:26:03.234Z,9.70
2023-01-28T19:31:04.873Z,8.25
2023-01-28T19:36:06.342Z,8.25
2023-01-28T19:41:07.818Z,13.98
2023-01-28T19:46:09.449Z,6.22
2023-01-28T19:51:10.954Z,6.80
2023-01-28T19:56:12.428Z,6.55
2023-01-28T20:01:13.994Z,7.85
2023-01-28T20:06:15.663Z,6.70
2023-01-28T20:11:17.134Z,6.32
2023-01-28T20:16:18.630Z,7.85
2023-01-28T20:21:20.172Z,7.68
2023-01-28T20:26:21.603Z,6.53
2023-01-28T20:31:23.148Z,7.85
2023-01-28T20:36:24.733Z,7.78
2023-01-28T20:41:26.236Z,7.00
2023-01-28T20:46:27.948Z,6.40
2023-01-28T20:51:29.463Z,5.53
2023-01-28T20:56:30.907Z,5.97
2023-01-28T21:01:32.598Z,4.90
2023-01-28T21:06:34.340Z,5.18
2023-01-28T21:11:36.601Z,6.57
2023-01-28T21:16:38.763Z,6.45
2023-01-28T21:21:41.172Z,6.05
2023-01-28T21:26:43.108Z,5.70
2023-01-28T21:31:44.728Z,5.75
2023-01-28T21:36:46.487Z,6.35
2023-01-28T21:41:48.093Z,5.65
2023-01-28T21:46:49.593Z,5.88
2023-01-28T21:51:51.223Z,6.82
2023-01-28T21:56:52.749Z,6.53
2023-01-28T22:01:54.314Z,5.93
2023-01-28T22:06:55.765Z,6.82
2023-01-28T22:11:57.292Z,6.25
2023-01-28T22:16:58.820Z,5.43
2023-01-28T22:22:00.338Z,4.65
2023-01-28T22:27:01.859Z,5.40
2023-01-28T22:32:03.487Z,5.28
2023-01-28T22:37:04.992Z,5.97
2023-01-28T22:42:06.509Z,6.13
2023-01-28T22:47:07.983Z,4.95
2023-01-28T22:52:09.419Z,5.20
2023-01-28T22:57:10.848Z,6.07
2023-01-28T23:02:12.314Z,5.45
2023-01-28T23:07:13.742Z,5.65
2023-01-28T23:12:15.204Z,6.00
2023-01-28T23:17:16.779Z,4.75
2023-01-28T23:22:18.324Z,5.25
2023-01-28T23:27:19.829Z,5.85
2023-01-28T23:32:21.271Z,5.00
2023-01-28T23:37:22.753Z,4.70
2023-01-28T23:42:24.209Z,4.47
2023-01-28T23:47:25.692Z,4.55
2023-01-28T23:52:27.359Z,5.75
2023-01-28T23:57:28.786Z,5.28
